sensor_id;sensor_type;location;lat;lon;timestamp;P1;durP1;ratioP1;P2;durP2;ratioP2
67902;SDS011;54708;43.612;1.568;2022-09-09T00:04:38;4.22;;;1.52;;
67902;SDS011;54708;43.612;1.568;2022-09-09T00:15:22;5.95;;;1.75;;
67902;SDS011;54708;43.612;1.568;2022-09-09T00:17:53;2.45;;;1.45;;
67902;SDS011;54708;43.612;1.568;2022-09-09T00:23:09;2.88;;;1.42;;
67902;SDS011;54708;43.612;1.568;2022-09-09T00:28:39;6.07;;;1.83;;
67902;SDS011;54708;43.612;1.568;2022-09-09T00:31:13;7.00;;;1.70;;
67902;SDS011;54708;43.612;1.568;2022-09-09T00:33:40;6.50;;;1.83;;
67902;SDS011;54708;43.612;1.568;2022-09-09T00:36:09;4.88;;;1.73;;
67902;SDS011;54708;43.612;1.568;2022-09-09T00:38:40;6.35;;;2.63;;
67902;SDS011;54708;43.612;1.568;2022-09-09T00:49:27;5.03;;;2.17;;
67902;SDS011;54708;43.612;1.568;2022-09-09T00:52:39;6.25;;;1.55;;
67902;SDS011;54708;43.612;1.568;2022-09-09T00:57:37;6.20;;;1.83;;
67902;SDS011;54708;43.612;1.568;2022-09-09T01:00:19;2.88;;;1.60;;
67902;SDS011;54708;43.612;1.568;2022-09-09T01:05:41;4.45;;;1.52;;
67902;SDS011;54708;43.612;1.568;2022-09-09T01:11:05;2.17;;;1.77;;
67902;SDS011;54708;43.612;1.568;2022-09-09T01:13:35;7.43;;;1.80;;
67902;SDS011;54708;43.612;1.568;2022-09-09T01:16:02;4.40;;;1.45;;
67902;SDS011;54708;43.612;1.568;2022-09-09T01:18:30;4.90;;;1.75;;
67902;SDS011;54708;43.612;1.568;2022-09-09T01:26:19;2.85;;;1.63;;
67902;SDS011;54708;43.612;1.568;2022-09-09T01:28:48;2.45;;;1.73;;
67902;SDS011;54708;43.612;1.568;2022-09-09T01:31:19;4.65;;;1.30;;
67902;SDS011;54708;43.612;1.568;2022-09-09T01:33:52;6.13;;;2.95;;
67902;SDS011;54708;43.612;1.568;2022-09-09T01:38:58;4.05;;;1.92;;
67902;SDS011;54708;43.612;1.568;2022-09-09T01:41:23;5.13;;;1.77;;
67902;SDS011;54708;43.612;1.568;2022-09-09T01:43:49;4.07;;;1.38;;
67902;SDS011;54708;43.612;1.568;2022-09-09T01:46:15;4.28;;;1.67;;
67902;SDS011;54708;43.612;1.568;2022-09-09T01:48:41;7.60;;;2.53;;
67902;SDS011;54708;43.612;1.568;2022-09-09T01:51:07;3.53;;;1.92;;
67902;SDS011;54708;43.612;1.568;2022-09-09T01:53:35;2.20;;;1.52;;
67902;SDS011;54708;43.612;1.568;2022-09-09T01:56:23;6.97;;;2.33;;
67902;SDS011;54708;43.612;1.568;2022-09-09T02:01:50;3.08;;;1.90;;
67902;SDS011;54708;43.612;1.568;2022-09-09T02:06:53;2.20;;;1.60;;
67902;SDS011;54708;43.612;1.568;2022-09-09T02:09:20;5.05;;;2.20;;
67902;SDS011;54708;43.612;1.568;2022-09-09T02:11:48;7.32;;;1.88;;
67902;SDS011;54708;43.612;1.568;2022-09-09T02:14:22;4.43;;;1.65;;
67902;SDS011;54708;43.612;1.568;2022-09-09T02:16:57;5.93;;;1.70;;
67902;SDS011;54708;43.612;1.568;2022-09-09T02:19:29;10.98;;;2.28;;
67902;SDS011;54708;43.612;1.568;2022-09-09T02:21:57;3.88;;;1.75;;
67902;SDS011;54708;43.612;1.568;2022-09-09T02:24:24;1.63;;;1.50;;
67902;SDS011;54708;43.612;1.568;2022-09-09T02:26:51;3.85;;;1.77;;
67902;SDS011;54708;43.612;1.568;2022-09-09T02:29:30;3.58;;;1.63;;
67902;SDS011;54708;43.612;1.568;2022-09-09T02:31:58;3.47;;;1.40;;
67902;SDS011;54708;43.612;1.568;2022-09-09T02:34:28;2.97;;;1.67;;
67902;SDS011;54708;43.612;1.568;2022-09-09T02:36:53;3.80;;;1.50;;
67902;SDS011;54708;43.612;1.568;2022-09-09T02:39:20;2.22;;;1.45;;
67902;SDS011;54708;43.612;1.568;2022-09-09T02:41:45;4.13;;;1.75;;
67902;SDS011;54708;43.612;1.568;2022-09-09T02:44:12;3.15;;;1.40;;
67902;SDS011;54708;43.612;1.568;2022-09-09T02:46:45;2.40;;;1.67;;
67902;SDS011;54708;43.612;1.568;2022-09-09T02:52:00;5.32;;;1.80;;
67902;SDS011;54708;43.612;1.568;2022-09-09T02:54:28;1.98;;;1.13;;
67902;SDS011;54708;43.612;1.568;2022-09-09T02:57:00;4.35;;;1.42;;
67902;SDS011;54708;43.612;1.568;2022-09-09T02:59:27;1.38;;;1.27;;
67902;SDS011;54708;43.612;1.568;2022-09-09T03:01:54;2.45;;;1.90;;
67902;SDS011;54708;43.612;1.568;2022-09-09T03:04:19;3.40;;;1.83;;
67902;SDS011;54708;43.612;1.568;2022-09-09T03:06:45;6.20;;;1.65;;
67902;SDS011;54708;43.612;1.568;2022-09-09T03:09:10;4.85;;;1.45;;
67902;SDS011;54708;43.612;1.568;2022-09-09T03:11:36;5.85;;;1.73;;
67902;SDS011;54708;43.612;1.568;2022-09-09T03:14:03;4.75;;;1.92;;
67902;SDS011;54708;43.612;1.568;2022-09-09T03:16:29;2.03;;;1.30;;
67902;SDS011;54708;43.612;1.568;2022-09-09T03:18:54;2.60;;;1.73;;
67902;SDS011;54708;43.612;1.568;2022-09-09T03:21:20;1.48;;;1.08;;
67902;SDS011;54708;43.612;1.568;2022-09-09T03:23:46;2.95;;;1.30;;
67902;SDS011;54708;43.612;1.568;2022-09-09T03:26:11;4.55;;;1.80;;
67902;SDS011;54708;43.612;1.568;2022-09-09T03:28:39;3.78;;;1.50;;
67902;SDS011;54708;43.612;1.568;2022-09-09T03:31:05;1.60;;;1.30;;
67902;SDS011;54708;43.612;1.568;2022-09-09T03:33:31;2.65;;;1.30;;
67902;SDS011;54708;43.612;1.568;2022-09-09T03:35:56;3.13;;;1.88;;
67902;SDS011;54708;43.612;1.568;2022-09-09T03:38:25;3.95;;;1.83;;
67902;SDS011;54708;43.612;1.568;2022-09-09T03:40:51;3.47;;;1.30;;
67902;SDS011;54708;43.612;1.568;2022-09-09T03:43:20;4.18;;;2.47;;
67902;SDS011;54708;43.612;1.568;2022-09-09T03:45:46;3.72;;;1.73;;
67902;SDS011;54708;43.612;1.568;2022-09-09T03:48:13;2.00;;;1.33;;
67902;SDS011;54708;43.612;1.568;2022-09-09T03:50:39;2.13;;;1.23;;
67902;SDS011;54708;43.612;1.568;2022-09-09T03:53:09;4.03;;;1.55;;
67902;SDS011;54708;43.612;1.568;2022-09-09T03:55:34;3.47;;;1.67;;
67902;SDS011;54708;43.612;1.568;2022-09-09T03:58:00;2.17;;;1.23;;
67902;SDS011;54708;43.612;1.568;2022-09-09T04:00:25;3.92;;;1.25;;
67902;SDS011;54708;43.612;1.568;2022-09-09T04:02:51;2.80;;;1.40;;
67902;SDS011;54708;43.612;1.568;2022-09-09T04:05:19;2.40;;;1.25;;
67902;SDS011;54708;43.612;1.568;2022-09-09T04:07:44;2.35;;;1.40;;
67902;SDS011;54708;43.612;1.568;2022-09-09T04:10:09;5.60;;;1.65;;
67902;SDS011;54708;43.612;1.568;2022-09-09T04:12:35;4.13;;;1.35;;
67902;SDS011;54708;43.612;1.568;2022-09-09T04:15:00;1.20;;;1.08;;
67902;SDS011;54708;43.612;1.568;2022-09-09T04:17:27;1.77;;;1.40;;
67902;SDS011;54708;43.612;1.568;2022-09-09T04:19:52;4.38;;;1.50;;
67902;SDS011;54708;43.612;1.568;2022-09-09T04:22:18;1.88;;;1.58;;
67902;SDS011;54708;43.612;1.568;2022-09-09T04:24:43;1.98;;;1.67;;
67902;SDS011;54708;43.612;1.568;2022-09-09T04:27:08;3.00;;;1.73;;
67902;SDS011;54708;43.612;1.568;2022-09-09T04:29:34;4.68;;;2.25;;
67902;SDS011;54708;43.612;1.568;2022-09-09T04:31:59;2.28;;;1.27;;
67902;SDS011;54708;43.612;1.568;2022-09-09T04:34:25;3.13;;;1.30;;
67902;SDS011;54708;43.612;1.568;2022-09-09T04:36:50;3.22;;;1.35;;
67902;SDS011;54708;43.612;1.568;2022-09-09T04:39:17;2.03;;;1.30;;
67902;SDS011;54708;43.612;1.568;2022-09-09T04:41:42;2.75;;;1.13;;
67902;SDS011;54708;43.612;1.568;2022-09-09T04:44:07;2.55;;;1.30;;
67902;SDS011;54708;43.612;1.568;2022-09-09T04:46:33;3.80;;;1.50;;
67902;SDS011;54708;43.612;1.568;2022-09-09T04:48:59;2.75;;;1.30;;
67902;SDS011;54708;43.612;1.568;2022-09-09T04:51:24;2.00;;;1.25;;
67902;SDS011;54708;43.612;1.568;2022-09-09T04:53:50;4.13;;;1.40;;
67902;SDS011;54708;43.612;1.568;2022-09-09T04:56:16;6.00;;;1.50;;
67902;SDS011;54708;43.612;1.568;2022-09-09T04:58:43;4.13;;;2.38;;
67902;SDS011;54708;43.612;1.568;2022-09-09T05:01:10;6.70;;;1.10;;
67902;SDS011;54708;43.612;1.568;2022-09-09T05:03:45;1.73;;;1.20;;
67902;SDS011;54708;43.612;1.568;2022-09-09T05:06:11;2.58;;;1.95;;
67902;SDS011;54708;43.612;1.568;2022-09-09T05:08:44;3.08;;;1.38;;
67902;SDS011;54708;43.612;1.568;2022-09-09T05:11:17;3.83;;;1.13;;
67902;SDS011;54708;43.612;1.568;2022-09-09T05:13:44;2.65;;;1.33;;
67902;SDS011;54708;43.612;1.568;2022-09-09T05:16:10;1.35;;;1.20;;
67902;SDS011;54708;43.612;1.568;2022-09-09T05:18:36;2.33;;;1.30;;
67902;SDS011;54708;43.612;1.568;2022-09-09T05:21:05;3.58;;;1.42;;
67902;SDS011;54708;43.612;1.568;2022-09-09T05:23:31;4.28;;;1.55;;
67902;SDS011;54708;43.612;1.568;2022-09-09T05:25:59;3.92;;;1.40;;
67902;SDS011;54708;43.612;1.568;2022-09-09T05:28:25;3.55;;;1.35;;
67902;SDS011;54708;43.612;1.568;2022-09-09T05:31:01;4.20;;;1.65;;
67902;SDS011;54708;43.612;1.568;2022-09-09T05:33:31;2.47;;;1.50;;
67902;SDS011;54708;43.612;1.568;2022-09-09T05:36:04;9.43;;;1.95;;
67902;SDS011;54708;43.612;1.568;2022-09-09T05:38:31;1.77;;;1.20;;
67902;SDS011;54708;43.612;1.568;2022-09-09T05:40:58;3.70;;;2.08;;
67902;SDS011;54708;43.612;1.568;2022-09-09T05:43:24;3.58;;;1.70;;
67902;SDS011;54708;43.612;1.568;2022-09-09T05:46:00;6.55;;;1.42;;
67902;SDS011;54708;43.612;1.568;2022-09-09T05:48:29;1.85;;;1.70;;
67902;SDS011;54708;43.612;1.568;2022-09-09T05:50:56;2.70;;;1.33;;
67902;SDS011;54708;43.612;1.568;2022-09-09T05:53:21;3.00;;;1.83;;
67902;SDS011;54708;43.612;1.568;2022-09-09T05:55:47;1.63;;;1.45;;
67902;SDS011;54708;43.612;1.568;2022-09-09T05:58:13;2.30;;;1.40;;
67902;SDS011;54708;43.612;1.568;2022-09-09T06:00:40;2.70;;;1.50;;
67902;SDS011;54708;43.612;1.568;2022-09-09T06:03:05;1.88;;;1.30;;
67902;SDS011;54708;43.612;1.568;2022-09-09T06:05:31;4.68;;;1.60;;
67902;SDS011;54708;43.612;1.568;2022-09-09T06:07:56;3.53;;;1.90;;
67902;SDS011;54708;43.612;1.568;2022-09-09T06:10:22;4.28;;;1.73;;
67902;SDS011;54708;43.612;1.568;2022-09-09T06:12:47;2.13;;;1.80;;
67902;SDS011;54708;43.612;1.568;2022-09-09T06:15:13;5.10;;;2.05;;
67902;SDS011;54708;43.612;1.568;2022-09-09T06:17:38;2.60;;;1.85;;
67902;SDS011;54708;43.612;1.568;2022-09-09T06:20:04;6.07;;;1.90;;
67902;SDS011;54708;43.612;1.568;2022-09-09T06:22:30;3.78;;;1.92;;
67902;SDS011;54708;43.612;1.568;2022-09-09T06:24:56;5.13;;;2.40;;
67902;SDS011;54708;43.612;1.568;2022-09-09T06:27:21;6.50;;;2.30;;
67902;SDS011;54708;43.612;1.568;2022-09-09T06:29:46;8.20;;;2.80;;
67902;SDS011;54708;43.612;1.568;2022-09-09T06:32:13;3.75;;;2.30;;
67902;SDS011;54708;43.612;1.568;2022-09-09T06:34:38;2.22;;;2.03;;
67902;SDS011;54708;43.612;1.568;2022-09-09T06:37:03;3.38;;;1.85;;
67902;SDS011;54708;43.612;1.568;2022-09-09T06:39:31;7.25;;;2.80;;
67902;SDS011;54708;43.612;1.568;2022-09-09T06:41:56;7.00;;;2.28;;
67902;SDS011;54708;43.612;1.568;2022-09-09T06:44:23;5.32;;;2.30;;
67902;SDS011;54708;43.612;1.568;2022-09-09T06:46:51;4.47;;;2.13;;
67902;SDS011;54708;43.612;1.568;2022-09-09T06:49:17;2.13;;;1.60;;
67902;SDS011;54708;43.612;1.568;2022-09-09T06:51:43;3.85;;;1.90;;
67902;SDS011;54708;43.612;1.568;2022-09-09T06:54:09;3.70;;;1.58;;
67902;SDS011;54708;43.612;1.568;2022-09-09T06:56:35;2.15;;;1.45;;
67902;SDS011;54708;43.612;1.568;2022-09-09T06:59:03;3.58;;;1.70;;
67902;SDS011;54708;43.612;1.568;2022-09-09T07:01:33;2.75;;;1.45;;
67902;SDS011;54708;43.612;1.568;2022-09-09T07:04:04;2.42;;;1.60;;
67902;SDS011;54708;43.612;1.568;2022-09-09T07:06:35;6.93;;;2.22;;
67902;SDS011;54708;43.612;1.568;2022-09-09T07:09:02;6.22;;;2.05;;
67902;SDS011;54708;43.612;1.568;2022-09-09T07:11:30;3.67;;;1.98;;
67902;SDS011;54708;43.612;1.568;2022-09-09T07:13:57;4.90;;;2.15;;
67902;SDS011;54708;43.612;1.568;2022-09-09T07:16:24;4.97;;;2.15;;
67902;SDS011;54708;43.612;1.568;2022-09-09T07:18:49;3.35;;;2.22;;
67902;SDS011;54708;43.612;1.568;2022-09-09T07:21:15;2.95;;;2.45;;
67902;SDS011;54708;43.612;1.568;2022-09-09T07:23:41;3.92;;;2.00;;
67902;SDS011;54708;43.612;1.568;2022-09-09T07:26:16;4.85;;;1.95;;
67902;SDS011;54708;43.612;1.568;2022-09-09T07:28:44;2.60;;;2.17;;
67902;SDS011;54708;43.612;1.568;2022-09-09T07:31:14;3.60;;;1.90;;
67902;SDS011;54708;43.612;1.568;2022-09-09T07:34:01;5.78;;;2.05;;
67902;SDS011;54708;43.612;1.568;2022-09-09T07:36:28;5.18;;;2.00;;
67902;SDS011;54708;43.612;1.568;2022-09-09T07:38:56;1.80;;;1.50;;
67902;SDS011;54708;43.612;1.568;2022-09-09T07:41:31;2.00;;;1.75;;
67902;SDS011;54708;43.612;1.568;2022-09-09T07:44:07;3.13;;;2.50;;
67902;SDS011;54708;43.612;1.568;2022-09-09T07:46:34;6.05;;;3.30;;
67902;SDS011;54708;43.612;1.568;2022-09-09T07:49:00;5.70;;;3.97;;
67902;SDS011;54708;43.612;1.568;2022-09-09T07:51:27;5.57;;;4.28;;
67902;SDS011;54708;43.612;1.568;2022-09-09T07:53:55;6.55;;;3.45;;
67902;SDS011;54708;43.612;1.568;2022-09-09T07:56:23;1.73;;;1.50;;
67902;SDS011;54708;43.612;1.568;2022-09-09T07:58:49;4.80;;;1.90;;
67902;SDS011;54708;43.612;1.568;2022-09-09T08:01:19;2.83;;;1.80;;
67902;SDS011;54708;43.612;1.568;2022-09-09T08:03:52;2.17;;;1.40;;
67902;SDS011;54708;43.612;1.568;2022-09-09T08:06:19;3.37;;;1.97;;
67902;SDS011;54708;43.612;1.568;2022-09-09T08:08:44;2.60;;;1.92;;
67902;SDS011;54708;43.612;1.568;2022-09-09T08:11:11;4.90;;;3.08;;
67902;SDS011;54708;43.612;1.568;2022-09-09T08:13:40;9.98;;;5.80;;
67902;SDS011;54708;43.612;1.568;2022-09-09T08:16:07;8.35;;;4.50;;
67902;SDS011;54708;43.612;1.568;2022-09-09T08:18:33;6.10;;;3.00;;
67902;SDS011;54708;43.612;1.568;2022-09-09T08:21:04;6.40;;;3.33;;
67902;SDS011;54708;43.612;1.568;2022-09-09T08:23:34;8.10;;;5.22;;
67902;SDS011;54708;43.612;1.568;2022-09-09T08:26:04;5.00;;;3.50;;
67902;SDS011;54708;43.612;1.568;2022-09-09T08:28:30;3.97;;;2.33;;
67902;SDS011;54708;43.612;1.568;2022-09-09T08:30:56;3.13;;;1.80;;
67902;SDS011;54708;43.612;1.568;2022-09-09T08:33:21;2.15;;;2.00;;
67902;SDS011;54708;43.612;1.568;2022-09-09T08:35:50;6.55;;;2.42;;
67902;SDS011;54708;43.612;1.568;2022-09-09T08:38:17;3.17;;;1.85;;
67902;SDS011;54708;43.612;1.568;2022-09-09T08:40:43;2.60;;;1.73;;
67902;SDS011;54708;43.612;1.568;2022-09-09T08:43:12;6.50;;;2.05;;
67902;SDS011;54708;43.612;1.568;2022-09-09T08:45:42;5.18;;;2.17;;
67902;SDS011;54708;43.612;1.568;2022-09-09T08:51:43;5.80;;;2.28;;
67902;SDS011;54708;43.612;1.568;2022-09-09T08:54:09;5.25;;;2.85;;
67902;SDS011;54708;43.612;1.568;2022-09-09T08:56:35;4.93;;;2.75;;
67902;SDS011;54708;43.612;1.568;2022-09-09T08:59:01;5.07;;;1.95;;
67902;SDS011;54708;43.612;1.568;2022-09-09T09:07:08;3.00;;;2.05;;
67902;SDS011;54708;43.612;1.568;2022-09-09T09:09:54;3.25;;;2.63;;
67902;SDS011;54708;43.612;1.568;2022-09-09T09:12:25;3.35;;;2.47;;
67902;SDS011;54708;43.612;1.568;2022-09-09T09:14:54;4.43;;;2.70;;
67902;SDS011;54708;43.612;1.568;2022-09-09T09:17:21;6.90;;;2.83;;
67902;SDS011;54708;43.612;1.568;2022-09-09T09:19:49;6.07;;;3.60;;
67902;SDS011;54708;43.612;1.568;2022-09-09T09:29:59;3.55;;;1.63;;
67902;SDS011;54708;43.612;1.568;2022-09-09T09:32:26;2.92;;;1.50;;
67902;SDS011;54708;43.612;1.568;2022-09-09T09:34:55;4.03;;;1.90;;
67902;SDS011;54708;43.612;1.568;2022-09-09T09:37:29;5.80;;;1.80;;
67902;SDS011;54708;43.612;1.568;2022-09-09T09:40:07;3.72;;;1.80;;
67902;SDS011;54708;43.612;1.568;2022-09-09T09:43:01;3.25;;;1.77;;
67902;SDS011;54708;43.612;1.568;2022-09-09T09:48:09;4.35;;;2.03;;
67902;SDS011;54708;43.612;1.568;2022-09-09T09:50:40;6.50;;;2.70;;
67902;SDS011;54708;43.612;1.568;2022-09-09T09:53:19;4.93;;;1.85;;
67902;SDS011;54708;43.612;1.568;2022-09-09T09:55:49;2.97;;;2.05;;
67902;SDS011;54708;43.612;1.568;2022-09-09T09:58:18;5.50;;;2.22;;
67902;SDS011;54708;43.612;1.568;2022-09-09T10:00:50;4.38;;;2.00;;
67902;SDS011;54708;43.612;1.568;2022-09-09T10:03:27;5.40;;;2.30;;
67902;SDS011;54708;43.612;1.568;2022-09-09T10:05:56;3.60;;;1.77;;
67902;SDS011;54708;43.612;1.568;2022-09-09T10:08:25;5.38;;;2.70;;
67902;SDS011;54708;43.612;1.568;2022-09-09T10:16:40;4.50;;;2.03;;
67902;SDS011;54708;43.612;1.568;2022-09-09T10:19:35;2.63;;;1.52;;
67902;SDS011;54708;43.612;1.568;2022-09-09T10:43:14;4.63;;;1.63;;
67902;SDS011;54708;43.612;1.568;2022-09-09T10:46:00;3.90;;;1.67;;
67902;SDS011;54708;43.612;1.568;2022-09-09T10:53:35;2.80;;;1.33;;
67902;SDS011;54708;43.612;1.568;2022-09-09T10:56:09;4.40;;;1.60;;
67902;SDS011;54708;43.612;1.568;2022-09-09T11:04:20;1.50;;;1.40;;
67902;SDS011;54708;43.612;1.568;2022-09-09T11:06:51;5.05;;;1.90;;
67902;SDS011;54708;43.612;1.568;2022-09-09T11:09:19;3.10;;;1.48;;
67902;SDS011;54708;43.612;1.568;2022-09-09T11:11:54;5.97;;;1.40;;
67902;SDS011;54708;43.612;1.568;2022-09-09T11:17:01;3.92;;;1.75;;
67902;SDS011;54708;43.612;1.568;2022-09-09T11:19:41;6.70;;;2.05;;
67902;SDS011;54708;43.612;1.568;2022-09-09T11:30:50;3.75;;;1.55;;
67902;SDS011;54708;43.612;1.568;2022-09-09T11:41:51;1.98;;;1.33;;
67902;SDS011;54708;43.612;1.568;2022-09-09T11:44:17;2.60;;;1.55;;
67902;SDS011;54708;43.612;1.568;2022-09-09T11:46:46;2.38;;;1.70;;
67902;SDS011;54708;43.612;1.568;2022-09-09T11:52:21;2.85;;;1.60;;
67902;SDS011;54708;43.612;1.568;2022-09-09T11:54:48;6.65;;;2.08;;
67902;SDS011;54708;43.612;1.568;2022-09-09T11:57:34;3.80;;;1.55;;
67902;SDS011;54708;43.612;1.568;2022-09-09T12:00:00;4.28;;;1.52;;
67902;SDS011;54708;43.612;1.568;2022-09-09T12:02:28;4.03;;;1.85;;
67902;SDS011;54708;43.612;1.568;2022-09-09T12:05:07;4.40;;;1.70;;
67902;SDS011;54708;43.612;1.568;2022-09-09T12:10:34;4.85;;;1.38;;
67902;SDS011;54708;43.612;1.568;2022-09-09T12:13:08;3.03;;;1.70;;
67902;SDS011;54708;43.612;1.568;2022-09-09T12:15:34;4.00;;;2.03;;
67902;SDS011;54708;43.612;1.568;2022-09-09T12:18:00;2.33;;;1.55;;
67902;SDS011;54708;43.612;1.568;2022-09-09T12:28:41;4.05;;;1.65;;
67902;SDS011;54708;43.612;1.568;2022-09-09T12:36:48;10.50;;;2.75;;
67902;SDS011;54708;43.612;1.568;2022-09-09T12:39:34;7.30;;;2.13;;
67902;SDS011;54708;43.612;1.568;2022-09-09T12:42:03;3.42;;;2.13;;
67902;SDS011;54708;43.612;1.568;2022-09-09T12:44:29;8.02;;;2.20;;
67902;SDS011;54708;43.612;1.568;2022-09-09T12:46:55;4.53;;;2.00;;
67902;SDS011;54708;43.612;1.568;2022-09-09T12:49:24;4.50;;;1.63;;
67902;SDS011;54708;43.612;1.568;2022-09-09T12:51:51;6.07;;;2.03;;
67902;SDS011;54708;43.612;1.568;2022-09-09T12:54:16;3.63;;;1.77;;
67902;SDS011;54708;43.612;1.568;2022-09-09T12:56:45;5.28;;;2.22;;
67902;SDS011;54708;43.612;1.568;2022-09-09T12:59:18;4.13;;;2.33;;
67902;SDS011;54708;43.612;1.568;2022-09-09T13:01:54;3.35;;;2.05;;
67902;SDS011;54708;43.612;1.568;2022-09-09T13:04:21;5.15;;;1.73;;
67902;SDS011;54708;43.612;1.568;2022-09-09T13:06:49;7.07;;;1.60;;
67902;SDS011;54708;43.612;1.568;2022-09-09T13:09:15;14.73;;;2.08;;
67902;SDS011;54708;43.612;1.568;2022-09-09T13:11:44;7.60;;;2.40;;
67902;SDS011;54708;43.612;1.568;2022-09-09T13:14:16;4.22;;;1.90;;
67902;SDS011;54708;43.612;1.568;2022-09-09T13:16:54;4.80;;;2.10;;
67902;SDS011;54708;43.612;1.568;2022-09-09T13:19:24;7.40;;;1.95;;
67902;SDS011;54708;43.612;1.568;2022-09-09T13:21:53;8.13;;;2.55;;
67902;SDS011;54708;43.612;1.568;2022-09-09T13:26:56;8.07;;;2.78;;
67902;SDS011;54708;43.612;1.568;2022-09-09T13:29:50;3.55;;;1.75;;
67902;SDS011;54708;43.612;1.568;2022-09-09T13:32:20;5.93;;;1.65;;
67902;SDS011;54708;43.612;1.568;2022-09-09T13:34:57;8.00;;;2.13;;
67902;SDS011;54708;43.612;1.568;2022-09-09T13:37:26;4.95;;;1.60;;
67902;SDS011;54708;43.612;1.568;2022-09-09T13:39:56;4.30;;;1.50;;
67902;SDS011;54708;43.612;1.568;2022-09-09T13:42:26;9.82;;;2.10;;
67902;SDS011;54708;43.612;1.568;2022-09-09T13:44:57;5.10;;;1.52;;
67902;SDS011;54708;43.612;1.568;2022-09-09T13:47:29;3.25;;;1.80;;
67902;SDS011;54708;43.612;1.568;2022-09-09T13:49:56;4.78;;;1.50;;
67902;SDS011;54708;43.612;1.568;2022-09-09T13:52:22;4.75;;;1.40;;
67902;SDS011;54708;43.612;1.568;2022-09-09T13:54:48;6.38;;;1.88;;
67902;SDS011;54708;43.612;1.568;2022-09-09T13:57:16;3.58;;;1.70;;
67902;SDS011;54708;43.612;1.568;2022-09-09T13:59:43;13.30;;;2.40;;
67902;SDS011;54708;43.612;1.568;2022-09-09T14:02:09;4.82;;;1.85;;
67902;SDS011;54708;43.612;1.568;2022-09-09T14:04:35;3.47;;;1.35;;
67902;SDS011;54708;43.612;1.568;2022-09-09T14:07:00;5.85;;;1.45;;
67902;SDS011;54708;43.612;1.568;2022-09-09T14:09:26;5.03;;;2.00;;
67902;SDS011;54708;43.612;1.568;2022-09-09T14:11:51;3.25;;;1.30;;
67902;SDS011;54708;43.612;1.568;2022-09-09T14:14:17;5.65;;;1.45;;
67902;SDS011;54708;43.612;1.568;2022-09-09T14:16:42;3.95;;;1.90;;
67902;SDS011;54708;43.612;1.568;2022-09-09T14:19:08;3.22;;;1.58;;
67902;SDS011;54708;43.612;1.568;2022-09-09T14:21:34;5.20;;;1.80;;
67902;SDS011;54708;43.612;1.568;2022-09-09T14:24:00;5.65;;;1.67;;
67902;SDS011;54708;43.612;1.568;2022-09-09T14:26:25;3.53;;;1.67;;
67902;SDS011;54708;43.612;1.568;2022-09-09T14:28:51;3.38;;;1.75;;
67902;SDS011;54708;43.612;1.568;2022-09-09T14:31:16;6.25;;;2.03;;
67902;SDS011;54708;43.612;1.568;2022-09-09T14:33:42;2.92;;;1.60;;
67902;SDS011;54708;43.612;1.568;2022-09-09T14:36:08;3.10;;;1.73;;
67902;SDS011;54708;43.612;1.568;2022-09-09T14:38:35;5.60;;;2.38;;
67902;SDS011;54708;43.612;1.568;2022-09-09T14:41:15;9.52;;;2.00;;
67902;SDS011;54708;43.612;1.568;2022-09-09T14:43:42;4.85;;;1.58;;
67902;SDS011;54708;43.612;1.568;2022-09-09T14:46:08;6.40;;;2.08;;
67902;SDS011;54708;43.612;1.568;2022-09-09T14:48:35;6.32;;;1.80;;
67902;SDS011;54708;43.612;1.568;2022-09-09T14:53:37;2.60;;;1.63;;
67902;SDS011;54708;43.612;1.568;2022-09-09T14:56:11;5.40;;;1.60;;
67902;SDS011;54708;43.612;1.568;2022-09-09T14:58:41;3.85;;;1.38;;
67902;SDS011;54708;43.612;1.568;2022-09-09T15:01:08;5.95;;;1.50;;
67902;SDS011;54708;43.612;1.568;2022-09-09T15:03:37;3.78;;;1.25;;
67902;SDS011;54708;43.612;1.568;2022-09-09T15:06:07;6.50;;;1.83;;
67902;SDS011;54708;43.612;1.568;2022-09-09T15:08:34;5.70;;;2.05;;
67902;SDS011;54708;43.612;1.568;2022-09-09T15:11:02;3.55;;;1.45;;
67902;SDS011;54708;43.612;1.568;2022-09-09T15:13:29;7.80;;;2.03;;
67902;SDS011;54708;43.612;1.568;2022-09-09T15:15:54;3.70;;;1.48;;
67902;SDS011;54708;43.612;1.568;2022-09-09T15:18:20;6.70;;;1.70;;
67902;SDS011;54708;43.612;1.568;2022-09-09T15:20:46;4.38;;;1.17;;
67902;SDS011;54708;43.612;1.568;2022-09-09T15:23:12;3.13;;;1.50;;
67902;SDS011;54708;43.612;1.568;2022-09-09T15:25:38;7.15;;;2.10;;
67902;SDS011;54708;43.612;1.568;2022-09-09T15:28:06;2.03;;;1.38;;
67902;SDS011;54708;43.612;1.568;2022-09-09T15:30:31;2.92;;;1.38;;
67902;SDS011;54708;43.612;1.568;2022-09-09T15:32:57;3.67;;;1.30;;
67902;SDS011;54708;43.612;1.568;2022-09-09T15:35:22;4.15;;;1.33;;
67902;SDS011;54708;43.612;1.568;2022-09-09T15:37:47;3.83;;;1.60;;
67902;SDS011;54708;43.612;1.568;2022-09-09T15:40:13;7.15;;;2.08;;
67902;SDS011;54708;43.612;1.568;2022-09-09T15:42:39;2.42;;;1.35;;
67902;SDS011;54708;43.612;1.568;2022-09-09T15:45:04;14.75;;;1.92;;
67902;SDS011;54708;43.612;1.568;2022-09-09T15:47:30;6.32;;;1.83;;
67902;SDS011;54708;43.612;1.568;2022-09-09T15:49:57;3.28;;;1.38;;
67902;SDS011;54708;43.612;1.568;2022-09-09T15:52:22;4.53;;;1.70;;
67902;SDS011;54708;43.612;1.568;2022-09-09T15:54:47;3.72;;;1.38;;
67902;SDS011;54708;43.612;1.568;2022-09-09T15:57:13;3.08;;;1.30;;
67902;SDS011;54708;43.612;1.568;2022-09-09T15:59:38;4.47;;;1.08;;
67902;SDS011;54708;43.612;1.568;2022-09-09T16:02:05;4.32;;;1.55;;
67902;SDS011;54708;43.612;1.568;2022-09-09T16:04:31;6.22;;;2.28;;
67902;SDS011;54708;43.612;1.568;2022-09-09T16:07:00;3.78;;;1.63;;
67902;SDS011;54708;43.612;1.568;2022-09-09T16:09:28;5.40;;;1.33;;
67902;SDS011;54708;43.612;1.568;2022-09-09T16:11:55;6.50;;;2.30;;
67902;SDS011;54708;43.612;1.568;2022-09-09T16:14:21;3.08;;;1.33;;
67902;SDS011;54708;43.612;1.568;2022-09-09T16:16:47;4.60;;;1.60;;
67902;SDS011;54708;43.612;1.568;2022-09-09T16:19:13;4.38;;;1.77;;
67902;SDS011;54708;43.612;1.568;2022-09-09T16:21:40;2.92;;;1.10;;
67902;SDS011;54708;43.612;1.568;2022-09-09T16:24:07;4.00;;;1.60;;
67902;SDS011;54708;43.612;1.568;2022-09-09T16:26:34;4.35;;;1.67;;
67902;SDS011;54708;43.612;1.568;2022-09-09T16:29:01;5.95;;;1.90;;
67902;SDS011;54708;43.612;1.568;2022-09-09T16:31:27;3.08;;;1.65;;
67902;SDS011;54708;43.612;1.568;2022-09-09T16:33:54;3.33;;;1.55;;
67902;SDS011;54708;43.612;1.568;2022-09-09T16:36:20;4.15;;;1.35;;
67902;SDS011;54708;43.612;1.568;2022-09-09T16:38:57;4.55;;;1.17;;
67902;SDS011;54708;43.612;1.568;2022-09-09T16:41:24;4.65;;;2.00;;
67902;SDS011;54708;43.612;1.568;2022-09-09T16:43:54;2.65;;;1.20;;
67902;SDS011;54708;43.612;1.568;2022-09-09T16:46:25;3.92;;;1.30;;
67902;SDS011;54708;43.612;1.568;2022-09-09T16:48:52;6.20;;;1.65;;
67902;SDS011;54708;43.612;1.568;2022-09-09T16:51:21;3.95;;;1.50;;
67902;SDS011;54708;43.612;1.568;2022-09-09T16:53:50;3.97;;;2.13;;
67902;SDS011;54708;43.612;1.568;2022-09-09T16:56:21;5.53;;;1.38;;
67902;SDS011;54708;43.612;1.568;2022-09-09T16:58:53;5.45;;;1.55;;
67902;SDS011;54708;43.612;1.568;2022-09-09T17:01:20;4.13;;;1.50;;
67902;SDS011;54708;43.612;1.568;2022-09-09T17:03:46;4.07;;;1.55;;
67902;SDS011;54708;43.612;1.568;2022-09-09T17:06:12;4.85;;;2.10;;
67902;SDS011;54708;43.612;1.568;2022-09-09T17:08:39;7.32;;;1.52;;
67902;SDS011;54708;43.612;1.568;2022-09-09T17:11:24;4.68;;;1.77;;
67902;SDS011;54708;43.612;1.568;2022-09-09T17:13:50;3.47;;;1.80;;
67902;SDS011;54708;43.612;1.568;2022-09-09T17:16:16;3.63;;;1.60;;
67902;SDS011;54708;43.612;1.568;2022-09-09T17:18:43;5.45;;;1.67;;
67902;SDS011;54708;43.612;1.568;2022-09-09T17:21:09;6.75;;;1.38;;
67902;SDS011;54708;43.612;1.568;2022-09-09T17:23:39;3.55;;;1.65;;
67902;SDS011;54708;43.612;1.568;2022-09-09T17:26:05;4.50;;;1.45;;
67902;SDS011;54708;43.612;1.568;2022-09-09T17:28:35;1.52;;;1.38;;